Time;durP1;ratioP1;P1;durP2;ratioP2;P2;SDS_P1;SDS_P2;PMS_P1;PMS_P2;Temp;Humidity;BMP_temperature;BMP_pressure;BME280_temperature;BME280_humidity;BME280_pressure;Samples;Min_cycle;Max_cycle;Signal;HPM_P1;HPM_P2
2022/10/29 00:00:43;;;;;;;8.48;3.92;;;17.50;72.30;;;;;;5027425;28;20487;-70
2022/10/29 00:03:10;;;;;;;7.28;4.07;;;17.40;72.20;;;;;;5012156;28;20045;-70
2022/10/29 00:05:38;;;;;;;5.45;3.25;;;17.50;72.20;;;;;;5027924;28;20057;-70
2022/10/29 00:08:05;;;;;;;5.97;3.30;;;17.50;72.20;;;;;;5011415;28;20097;-69
2022/10/29 00:10:31;;;;;;;6.70;3.90;;;17.50;72.20;;;;;;5011017;28;20050;-69
2022/10/29 00:13:01;;;;;;;6.28;3.33;;;17.40;72.20;;;;;;5020510;28;20508;-70
2022/10/29 00:15:27;;;;;;;5.55;3.25;;;17.40;72.10;;;;;;5031334;28;20111;-70
2022/10/29 00:17:54;;;;;;;5.53;3.10;;;17.40;72.20;;;;;;5031906;28;20045;-70
2022/10/29 00:20:21;;;;;;;5.45;3.33;;;17.40;72.20;;;;;;5030439;28;20447;-69
2022/10/29 00:22:49;;;;;;;7.00;3.63;;;17.40;72.20;;;;;;5030363;28;20049;-69
2022/10/29 00:25:15;;;;;;;6.53;3.22;;;17.40;72.20;;;;;;5030640;28;20056;-69
2022/10/29 00:27:42;;;;;;;5.97;3.47;;;17.40;72.20;;;;;;5030800;28;20497;-70
2022/10/29 00:30:10;;;;;;;5.85;3.63;;;17.40;72.20;;;;;;5017985;28;20075;-69
2022/10/29 00:32:37;;;;;;;5.82;3.30;;;17.40;72.20;;;;;;5011043;28;20607;-69
2022/10/29 00:35:04;;;;;;;5.75;3.22;;;17.40;72.20;;;;;;5011711;28;20046;-70
2022/10/29 00:37:31;;;;;;;5.30;2.95;;;17.40;72.20;;;;;;5011925;28;20052;-70
2022/10/29 00:39:59;;;;;;;5.85;3.38;;;17.40;72.70;;;;;;5011802;28;20054;-69
2022/10/29 00:42:26;;;;;;;5.38;2.80;;;17.40;72.20;;;;;;5012073;28;20053;-70
2022/10/29 00:44:53;;;;;;;5.00;3.03;;;17.40;72.20;;;;;;5024734;28;20525;-70
2022/10/29 00:47:21;;;;;;;5.32;3.05;;;17.40;72.20;;;;;;5030506;28;20067;-70
2022/10/29 00:49:51;;;;;;;4.55;3.17;;;17.40;72.20;;;;;;5030617;28;20083;-70
2022/10/29 00:52:18;;;;;;;4.75;2.85;;;17.30;72.10;;;;;;5029984;28;20057;-70
2022/10/29 00:54:45;;;;;;;4.57;2.67;;;17.40;72.20;;;;;;5035032;28;20075;-70
2022/10/29 00:57:15;;;;;;;5.43;3.15;;;17.30;72.10;;;;;;5035366;28;20049;-70
2022/10/29 00:59:42;;;;;;;4.47;2.80;;;17.40;72.10;;;;;;5019136;28;20121;-69
2022/10/29 01:02:09;;;;;;;5.28;3.17;;;17.40;72.20;;;;;;5014627;28;20054;-70
2022/10/29 01:04:36;;;;;;;4.53;2.90;;;17.30;72.10;;;;;;5031126;28;20064;-70
2022/10/29 01:07:03;;;;;;;3.58;2.58;;;17.30;72.10;;;;;;5015711;28;20406;-70
2022/10/29 01:09:29;;;;;;;4.20;2.90;;;17.30;72.10;;;;;;5014156;28;20050;-70
2022/10/29 01:12:03;;;;;;;4.50;3.10;;;17.30;72.10;;;;;;5015555;28;20046;-70
2022/10/29 01:14:34;;;;;;;4.80;3.20;;;17.30;72.10;;;;;;5030624;28;20063;-69
2022/10/29 01:17:04;;;;;;;5.15;2.95;;;17.30;72.10;;;;;;5032438;28;20060;-70
2022/10/29 01:19:45;;;;;;;4.65;2.83;;;17.30;72.10;;;;;;5014253;28;20057;-70
2022/10/29 01:22:12;;;;;;;4.70;2.65;;;17.30;72.10;;;;;;5013767;28;20056;-70
2022/10/29 01:25:03;;;;;;;4.00;2.70;;;17.30;72.10;;;;;;5014086;28;20053;-71
2022/10/29 01:27:51;;;;;;;4.45;2.70;;;17.30;72.00;;;;;;5028753;28;20057;-70
2022/10/29 01:30:29;;;;;;;5.20;2.67;;;17.30;72.00;;;;;;5033275;28;20084;-70
2022/10/29 01:33:03;;;;;;;3.95;2.60;;;17.30;72.10;;;;;;5033906;28;20063;-70
2022/10/29 01:35:34;;;;;;;5.72;2.85;;;17.30;72.10;;;;;;5033769;28;20049;-70
2022/10/29 01:38:08;;;;;;;5.68;2.97;;;17.30;72.10;;;;;;5033951;28;20441;-70
2022/10/29 01:40:36;;;;;;;3.58;2.50;;;17.30;72.10;;;;;;5033787;28;20063;-70
2022/10/29 01:43:05;;;;;;;4.20;2.55;;;17.20;72.10;;;;;;5023575;28;20045;-71
2022/10/29 01:45:33;;;;;;;3.92;2.33;;;17.20;72.00;;;;;;5029757;28;20060;-70
2022/10/29 01:48:02;;;;;;;6.32;2.90;;;17.30;72.10;;;;;;5014719;28;20045;-70
2022/10/29 01:50:29;;;;;;;4.38;2.30;;;17.30;72.00;;;;;;5030101;28;20058;-69
2022/10/29 01:52:56;;;;;;;4.97;2.70;;;17.20;72.00;;;;;;5014728;28;20083;-69
2022/10/29 01:55:29;;;;;;;5.05;2.88;;;17.20;72.00;;;;;;5013564;28;20513;-70
2022/10/29 01:57:56;;;;;;;4.35;2.40;;;17.20;71.90;;;;;;5027207;28;20103;-71
2022/10/29 02:00:23;;;;;;;6.40;2.58;;;17.20;71.90;;;;;;5033983;28;20063;-70
2022/10/29 02:02:57;;;;;;;3.85;2.55;;;17.20;71.90;;;;;;5033392;28;20136;-70
2022/10/29 02:05:28;;;;;;;3.45;2.20;;;17.30;71.90;;;;;;5032867;28;20063;-70
2022/10/29 02:07:57;;;;;;;4.65;2.55;;;17.20;71.90;;;;;;5033177;28;20057;-70
2022/10/29 02:10:27;;;;;;;4.80;2.10;;;17.20;71.90;;;;;;5032939;28;20063;-70
2022/10/29 02:12:54;;;;;;;4.28;2.60;;;17.20;71.90;;;;;;5017942;28;20491;-70
2022/10/29 02:15:23;;;;;;;5.88;2.50;;;17.20;72.40;;;;;;5029612;28;20059;-70
2022/10/29 02:17:50;;;;;;;4.30;2.42;;;17.20;71.90;;;;;;5014589;28;20046;-70
2022/10/29 02:20:17;;;;;;;4.85;2.40;;;17.20;71.90;;;;;;5014325;28;20058;-70
2022/10/29 02:22:47;;;;;;;4.10;2.47;;;17.20;71.90;;;;;;5029438;28;20092;-70
2022/10/29 02:25:14;;;;;;;4.32;2.38;;;17.20;71.90;;;;;;5014113;28;20061;-70
2022/10/29 02:27:40;;;;;;;4.65;2.47;;;17.20;71.90;;;;;;5030757;28;20516;-69
2022/10/29 02:30:08;;;;;;;4.60;2.50;;;17.20;71.90;;;;;;5033587;28;20049;-70
2022/10/29 02:32:35;;;;;;;4.43;2.50;;;17.20;71.90;;;;;;5033578;28;20048;-70
2022/10/29 02:35:01;;;;;;;4.35;2.63;;;17.10;71.80;;;;;;5032473;28;20414;-70
2022/10/29 02:37:28;;;;;;;3.15;2.05;;;17.20;71.90;;;;;;5031988;28;20061;-69
2022/10/29 02:39:56;;;;;;;4.55;2.30;;;17.20;71.90;;;;;;5032167;28;20049;-69
2022/10/29 02:42:23;;;;;;;4.20;2.50;;;17.20;71.80;;;;;;5029266;28;20095;-69
2022/10/29 02:44:50;;;;;;;4.15;2.42;;;17.10;71.80;;;;;;5031708;28;20425;-71
2022/10/29 02:47:17;;;;;;;3.72;2.35;;;17.20;71.80;;;;;;5033577;28;20421;-70
2022/10/29 02:49:43;;;;;;;3.28;2.10;;;17.10;71.80;;;;;;5033183;28;20045;-70
2022/10/29 02:52:10;;;;;;;3.08;2.10;;;17.10;71.80;;;;;;5033109;28;20546;-70
2022/10/29 02:54:37;;;;;;;3.63;2.20;;;17.20;71.80;;;;;;5033002;28;20048;-70
2022/10/29 02:57:06;;;;;;;3.20;1.95;;;17.10;71.80;;;;;;5012162;28;20084;-70
2022/10/29 02:59:32;;;;;;;3.03;2.17;;;17.10;71.70;;;;;;5012498;28;20049;-70
2022/10/29 03:01:59;;;;;;;4.68;2.30;;;17.10;71.70;;;;;;5013265;28;20413;-70
2022/10/29 03:04:26;;;;;;;3.88;2.10;;;17.10;71.70;;;;;;5012438;28;20054;-70
2022/10/29 03:06:53;;;;;;;3.05;2.38;;;17.10;71.70;;;;;;5028811;28;20491;-69
2022/10/29 03:09:19;;;;;;;4.38;2.13;;;17.10;71.70;;;;;;5012184;28;20129;-70
2022/10/29 03:11:46;;;;;;;2.80;2.15;;;17.10;71.70;;;;;;5014830;28;20068;-70
2022/10/29 03:14:14;;;;;;;4.53;2.13;;;17.10;71.70;;;;;;5032238;28;20069;-70
2022/10/29 03:16:41;;;;;;;4.20;2.15;;;17.10;71.70;;;;;;5030578;28;20059;-70
2022/10/29 03:19:07;;;;;;;2.72;2.13;;;17.10;71.70;;;;;;5031702;28;20060;-70
2022/10/29 03:21:34;;;;;;;3.40;2.08;;;17.10;71.70;;;;;;5032529;28;20046;-69
2022/10/29 03:24:01;;;;;;;4.38;2.08;;;17.10;71.70;;;;;;5032697;28;20083;-71
2022/10/29 03:26:27;;;;;;;3.30;2.17;;;17.10;71.70;;;;;;5029921;28;20051;-70
2022/10/29 03:28:55;;;;;;;3.70;1.90;;;17.10;71.70;;;;;;5011947;28;20062;-70
2022/10/29 03:31:23;;;;;;;4.78;2.05;;;17.10;71.60;;;;;;5027990;28;20058;-70
2022/10/29 03:33:50;;;;;;;2.97;2.13;;;17.00;71.60;;;;;;5013024;28;20402;-70
2022/10/29 03:36:17;;;;;;;2.80;1.85;;;17.10;71.60;;;;;;5011173;28;20054;-69
2022/10/29 03:38:43;;;;;;;5.03;2.50;;;17.00;71.60;;;;;;5011625;28;20479;-69
2022/10/29 03:41:10;;;;;;;3.00;1.90;;;17.10;71.60;;;;;;5014660;28;20080;-70
2022/10/29 03:43:37;;;;;;;4.20;2.00;;;17.00;71.60;;;;;;5031338;28;20063;-70
2022/10/29 03:46:04;;;;;;;3.20;2.00;;;17.10;71.60;;;;;;5031001;28;20049;-70
2022/10/29 03:48:32;;;;;;;3.85;2.00;;;17.00;71.50;;;;;;5031447;28;20059;-70
2022/10/29 03:51:01;;;;;;;3.75;2.28;;;17.00;71.50;;;;;;5031094;28;20060;-71
2022/10/29 03:53:28;;;;;;;2.58;1.90;;;17.00;71.50;;;;;;5030964;28;20057;-70
2022/10/29 03:55:55;;;;;;;2.67;1.70;;;17.00;71.50;;;;;;5027793;28;20378;-70
2022/10/29 03:58:22;;;;;;;2.92;2.05;;;17.00;71.50;;;;;;5027344;28;20049;-71
2022/10/29 04:00:54;;;;;;;3.03;1.90;;;17.00;71.50;;;;;;5011050;28;20501;-71
2022/10/29 04:03:20;;;;;;;2.72;1.92;;;17.00;71.50;;;;;;5027383;28;20054;-70
2022/10/29 04:05:48;;;;;;;2.83;2.00;;;17.00;71.50;;;;;;5011238;28;20057;-70
2022/10/29 04:08:15;;;;;;;2.95;1.83;;;17.00;71.50;;;;;;5011045;28;20659;-70
2022/10/29 04:10:44;;;;;;;3.65;1.98;;;17.00;71.50;;;;;;5017096;28;20051;-70
2022/10/29 04:13:11;;;;;;;3.92;2.10;;;17.00;71.50;;;;;;5031744;28;20057;-70
2022/10/29 04:15:37;;;;;;;2.72;1.73;;;17.00;71.50;;;;;;5030787;28;20064;-71
2022/10/29 04:18:04;;;;;;;2.47;1.90;;;17.00;71.50;;;;;;5030560;28;20060;-71
2022/10/29 04:20:31;;;;;;;2.42;1.83;;;17.00;72.00;;;;;;5030444;28;20057;-71
2022/10/29 04:22:59;;;;;;;2.92;1.98;;;17.00;71.50;;;;;;5030520;28;20487;-71
2022/10/29 04:25:25;;;;;;;2.78;1.90;;;17.00;71.50;;;;;;5030466;28;20050;-71
2022/10/29 04:27:53;;;;;;;2.42;1.65;;;17.00;71.50;;;;;;5020283;28;20050;-71
2022/10/29 04:30:20;;;;;;;2.40;1.67;;;17.00;71.50;;;;;;5018731;28;20402;-71
2022/10/29 04:32:47;;;;;;;2.67;1.80;;;16.90;71.50;;;;;;5013214;28;20064;-71
2022/10/29 04:35:13;;;;;;;4.30;2.05;;;17.00;71.50;;;;;;5010918;28;20488;-70
2022/10/29 04:37:40;;;;;;;2.53;1.73;;;17.00;71.50;;;;;;5011958;28;20056;-70
2022/10/29 04:40:09;;;;;;;3.10;1.70;;;17.00;71.50;;;;;;5010596;28;20057;-70
2022/10/29 04:42:36;;;;;;;2.53;1.83;;;17.00;71.50;;;;;;5010794;28;20058;-71
2022/10/29 04:45:03;;;;;;;2.50;1.67;;;16.90;71.50;;;;;;5036127;28;20065;-71
2022/10/29 04:47:30;;;;;;;2.47;1.63;;;16.90;71.50;;;;;;5011691;28;20053;-71
2022/10/29 04:49:56;;;;;;;2.72;1.73;;;16.90;71.50;;;;;;5011510;28;20045;-71
2022/10/29 04:52:23;;;;;;;2.20;1.48;;;16.90;71.50;;;;;;5012010;28;20049;-71
2022/10/29 04:54:50;;;;;;;2.65;1.60;;;16.90;71.50;;;;;;5012008;28;20046;-71
2022/10/29 04:57:18;;;;;;;2.47;1.58;;;16.90;71.50;;;;;;5045105;28;20051;-71
2022/10/29 04:59:44;;;;;;;2.35;1.63;;;16.90;71.50;;;;;;5039271;28;20409;-71
2022/10/29 05:02:11;;;;;;;2.30;1.65;;;16.90;71.50;;;;;;5031051;28;20055;-71
2022/10/29 05:04:38;;;;;;;2.33;1.60;;;16.90;71.50;;;;;;5031144;28;20417;-71
2022/10/29 05:07:05;;;;;;;3.80;1.73;;;16.90;71.50;;;;;;5030180;28;20057;-71
2022/10/29 05:09:31;;;;;;;4.25;2.17;;;16.90;71.50;;;;;;5031460;28;20056;-70
2022/10/29 05:11:58;;;;;;;3.10;1.83;;;16.90;71.50;;;;;;5030381;28;20467;-70
2022/10/29 05:14:26;;;;;;;2.65;1.60;;;16.90;71.50;;;;;;5019985;28;20149;-71
2022/10/29 05:16:53;;;;;;;3.15;1.73;;;16.90;71.50;;;;;;5010308;28;20056;-71
2022/10/29 05:19:20;;;;;;;2.45;1.60;;;16.90;71.50;;;;;;5010692;28;20060;-71
2022/10/29 05:21:46;;;;;;;3.00;1.80;;;16.90;71.50;;;;;;5010330;28;20064;-71
2022/10/29 05:24:13;;;;;;;3.15;1.70;;;16.90;71.50;;;;;;5011538;28;20142;-71
2022/10/29 05:26:40;;;;;;;2.40;1.75;;;16.90;71.50;;;;;;5010385;28;20050;-71
2022/10/29 05:29:07;;;;;;;3.58;1.95;;;16.90;71.60;;;;;;5022237;28;20041;-71
2022/10/29 05:31:35;;;;;;;2.60;1.67;;;16.90;71.50;;;;;;5031109;28;20411;-71
2022/10/29 05:34:02;;;;;;;2.60;1.73;;;16.90;71.60;;;;;;5031298;28;20045;-71
2022/10/29 05:36:28;;;;;;;2.55;1.80;;;16.90;71.50;;;;;;5029820;28;20053;-71
2022/10/29 05:38:55;;;;;;;2.30;1.50;;;16.90;71.60;;;;;;5032055;28;20409;-70
2022/10/29 05:41:22;;;;;;;3.90;1.90;;;16.90;71.60;;;;;;5033636;28;20140;-70
2022/10/29 05:43:49;;;;;;;2.13;1.70;;;16.90;71.60;;;;;;5020461;28;20064;-70
2022/10/29 05:46:16;;;;;;;2.35;1.35;;;16.90;71.60;;;;;;5014992;28;20056;-70
2022/10/29 05:48:44;;;;;;;2.53;1.52;;;16.90;71.60;;;;;;5015057;28;20064;-70
2022/10/29 05:51:11;;;;;;;2.15;1.70;;;16.90;71.60;;;;;;5013611;28;20057;-70
2022/10/29 05:53:37;;;;;;;3.08;1.80;;;16.90;71.60;;;;;;5014968;28;20352;-70
2022/10/29 05:56:05;;;;;;;3.40;1.60;;;16.90;71.60;;;;;;5029771;28;20060;-70
2022/10/29 05:58:31;;;;;;;2.85;1.80;;;16.90;71.60;;;;;;5027223;28;20082;-70
2022/10/29 06:00:58;;;;;;;2.78;1.75;;;16.80;71.50;;;;;;5034483;28;20417;-70
2022/10/29 06:03:25;;;;;;;3.67;1.88;;;16.90;72.10;;;;;;5033219;28;20060;-70
2022/10/29 06:05:53;;;;;;;3.08;1.88;;;16.80;71.50;;;;;;5033150;28;20063;-70
2022/10/29 06:08:19;;;;;;;3.40;1.70;;;16.90;71.60;;;;;;5033615;28;20475;-71
2022/10/29 06:10:46;;;;;;;2.58;1.80;;;16.80;71.50;;;;;;5016521;28;20059;-70
2022/10/29 06:13:13;;;;;;;3.25;1.92;;;16.80;71.50;;;;;;5019646;28;20384;-71
2022/10/29 06:15:40;;;;;;;3.15;1.92;;;16.90;71.60;;;;;;5014913;28;20050;-71
2022/10/29 06:18:07;;;;;;;3.13;1.85;;;16.80;71.50;;;;;;5028731;28;20050;-71
2022/10/29 06:20:33;;;;;;;2.97;1.70;;;16.80;71.50;;;;;;5027593;28;20690;-71
2022/10/29 06:23:01;;;;;;;3.25;1.73;;;16.80;71.60;;;;;;5013152;28;20052;-71
2022/10/29 06:25:28;;;;;;;3.45;1.98;;;16.90;71.60;;;;;;5013989;28;20050;-71
2022/10/29 06:27:59;;;;;;;3.53;2.00;;;16.80;71.60;;;;;;5015024;28;20045;-71
2022/10/29 06:30:27;;;;;;;3.75;2.03;;;16.80;71.50;;;;;;5044668;28;20054;-71
2022/10/29 06:32:54;;;;;;;4.07;2.05;;;16.80;71.50;;;;;;5013582;28;20050;-70
2022/10/29 06:35:21;;;;;;;3.33;1.98;;;16.80;71.50;;;;;;5013183;28;20057;-71
2022/10/29 06:37:48;;;;;;;3.70;1.83;;;16.80;71.60;;;;;;5014023;28;20050;-71
2022/10/29 06:40:16;;;;;;;3.78;2.10;;;16.80;71.60;;;;;;5012936;28;20418;-71
2022/10/29 06:42:43;;;;;;;4.60;2.30;;;16.80;71.60;;;;;;5013992;28;20060;-70
2022/10/29 06:45:10;;;;;;;4.22;2.17;;;16.80;71.60;;;;;;5014009;28;20049;-71
2022/10/29 06:47:40;;;;;;;4.53;2.00;;;16.80;71.60;;;;;;5013001;28;20056;-71
2022/10/29 06:50:07;;;;;;;5.28;2.28;;;16.80;71.60;;;;;;5012544;28;20053;-71
2022/10/29 06:52:34;;;;;;;4.47;2.10;;;16.80;71.60;;;;;;5012351;28;20062;-73
2022/10/29 06:55:01;;;;;;;6.97;2.55;;;16.80;71.60;;;;;;5021325;28;20059;-71
2022/10/29 06:57:29;;;;;;;3.17;1.90;;;16.80;71.60;;;;;;5031365;28;20046;-71
2022/10/29 06:59:56;;;;;;;2.83;1.90;;;16.80;71.60;;;;;;5033206;28;20045;-71
2022/10/29 07:02:22;;;;;;;3.83;1.95;;;16.80;71.60;;;;;;5033175;28;20052;-71
2022/10/29 07:04:49;;;;;;;2.53;1.73;;;16.80;71.60;;;;;;5031913;28;20077;-71
2022/10/29 07:07:16;;;;;;;2.47;1.80;;;16.90;71.60;;;;;;5033225;28;20053;-70
2022/10/29 07:09:42;;;;;;;3.53;1.85;;;16.90;71.50;;;;;;5033329;28;20128;-70
2022/10/29 07:12:10;;;;;;;3.63;1.90;;;16.90;71.50;;;;;;5027807;28;20145;-70
2022/10/29 07:14:38;;;;;;;2.35;1.80;;;16.90;71.40;;;;;;5045409;28;20060;-71
2022/10/29 07:17:04;;;;;;;3.05;1.70;;;17.00;71.40;;;;;;5045241;28;20062;-71
2022/10/29 07:19:31;;;;;;;5.78;2.50;;;17.00;71.30;;;;;;5016797;28;20406;-69
2022/10/29 07:21:58;;;;;;;3.28;1.70;;;17.00;71.30;;;;;;5032595;28;20053;-69
2022/10/29 07:24:24;;;;;;;4.10;1.90;;;17.10;71.20;;;;;;5027702;28;20054;-70
2022/10/29 07:26:51;;;;;;;4.68;2.03;;;17.10;71.20;;;;;;5033890;28;20051;-70
2022/10/29 07:29:18;;;;;;;4.55;2.08;;;17.20;71.10;;;;;;5040827;28;20049;-70
2022/10/29 07:31:46;;;;;;;5.40;2.17;;;17.20;71.10;;;;;;5039581;28;20088;-70
2022/10/29 07:34:13;;;;;;;4.57;2.10;;;17.20;71.00;;;;;;5037308;28;20463;-70
2022/10/29 07:36:39;;;;;;;3.97;2.10;;;17.30;71.00;;;;;;5032925;28;20615;-70
2022/10/29 07:39:06;;;;;;;3.58;1.95;;;17.30;70.90;;;;;;5030433;28;20055;-70
2022/10/29 07:41:33;;;;;;;3.05;1.85;;;17.30;70.80;;;;;;5031205;28;20064;-70
2022/10/29 07:43:59;;;;;;;4.13;2.13;;;17.40;70.80;;;;;;5031390;28;20487;-70
2022/10/29 07:46:26;;;;;;;5.40;2.10;;;17.40;70.70;;;;;;5031469;28;20053;-70
2022/10/29 07:48:54;;;;;;;3.97;2.30;;;17.50;70.70;;;;;;5032616;28;20139;-70
2022/10/29 07:51:21;;;;;;;5.78;2.28;;;17.50;70.60;;;;;;5032315;28;20054;-70
2022/10/29 07:53:48;;;;;;;3.33;1.92;;;17.50;70.50;;;;;;5026299;28;20065;-70
2022/10/29 07:56:14;;;;;;;5.40;2.10;;;17.50;70.50;;;;;;5011596;28;20057;-70
2022/10/29 07:58:41;;;;;;;4.13;1.92;;;17.50;70.40;;;;;;5012369;28;20046;-70
2022/10/29 08:01:08;;;;;;;5.97;2.03;;;17.60;70.40;;;;;;5021174;28;20049;-70
2022/10/29 08:03:35;;;;;;;6.13;2.53;;;17.60;70.40;;;;;;5041924;28;20049;-70
2022/10/29 08:06:03;;;;;;;3.30;2.00;;;17.60;70.40;;;;;;5037365;28;20049;-70
2022/10/29 08:08:33;;;;;;;4.47;2.28;;;17.60;70.30;;;;;;5043482;28;20045;-71
2022/10/29 08:11:00;;;;;;;3.63;1.90;;;17.70;70.30;;;;;;5030638;28;20057;-70
2022/10/29 08:13:27;;;;;;;4.95;2.05;;;17.70;70.30;;;;;;5032279;28;20398;-70
2022/10/29 08:15:53;;;;;;;4.13;2.15;;;17.70;70.20;;;;;;5032475;28;20055;-71
2022/10/29 08:18:20;;;;;;;2.92;1.70;;;17.70;70.10;;;;;;5032128;28;20056;-71
2022/10/29 08:20:47;;;;;;;2.97;2.03;;;17.80;70.10;;;;;;5035015;28;20492;-70
2022/10/29 08:23:15;;;;;;;3.15;1.83;;;17.80;70.10;;;;;;5021587;28;20056;-71
2022/10/29 08:25:41;;;;;;;3.13;1.83;;;17.80;70.10;;;;;;5037971;28;20057;-71
2022/10/29 08:28:09;;;;;;;3.50;1.85;;;17.80;70.00;;;;;;5040912;28;20040;-71
2022/10/29 08:30:36;;;;;;;3.63;2.08;;;17.80;70.00;;;;;;5021684;28;20125;-70
2022/10/29 08:33:03;;;;;;;4.82;1.98;;;17.80;70.50;;;;;;5033634;28;20057;-71
2022/10/29 08:35:30;;;;;;;5.32;2.08;;;17.90;70.00;;;;;;5038970;28;20482;-70
2022/10/29 08:37:56;;;;;;;5.72;2.42;;;17.90;70.00;;;;;;5043545;28;20055;-71
2022/10/29 08:40:29;;;;;;;5.22;2.00;;;17.90;70.00;;;;;;5042247;28;20740;-71
2022/10/29 08:43:09;;;;;;;5.68;2.22;;;18.00;70.00;;;;;;5037725;28;20059;-70
2022/10/29 08:45:36;;;;;;;6.85;2.20;;;18.00;70.00;;;;;;5053025;28;20050;-71
2022/10/29 08:48:15;;;;;;;5.07;1.98;;;18.00;70.00;;;;;;5040615;28;20053;-70
2022/10/29 08:50:44;;;;;;;5.95;2.00;;;18.00;69.90;;;;;;5038929;28;20685;-70
2022/10/29 08:53:15;;;;;;;4.05;2.10;;;18.00;69.90;;;;;;5042663;28;20063;-70
2022/10/29 08:55:43;;;;;;;5.68;2.13;;;18.00;69.90;;;;;;5045662;28;20059;-70
2022/10/29 08:58:13;;;;;;;5.35;2.10;;;18.00;69.80;;;;;;5050972;28;20500;-71
2022/10/29 09:00:41;;;;;;;6.40;2.28;;;18.10;69.90;;;;;;5037842;28;20049;-71
2022/10/29 09:03:10;;;;;;;4.93;2.30;;;18.00;69.90;;;;;;5041965;28;20050;-72
2022/10/29 09:05:43;;;;;;;3.90;1.95;;;18.10;70.00;;;;;;5037122;28;20045;-71
2022/10/29 09:08:18;;;;;;;4.18;2.40;;;18.10;70.00;;;;;;5034387;28;20406;-70
2022/10/29 09:10:47;;;;;;;3.88;1.92;;;18.10;69.90;;;;;;5038949;28;20052;-70
2022/10/29 09:13:25;;;;;;;3.78;1.90;;;18.10;70.00;;;;;;5037002;28;20049;-71
2022/10/29 09:16:01;;;;;;;3.78;2.22;;;18.00;70.10;;;;;;5041559;28;20053;-71
2022/10/29 09:18:34;;;;;;;5.47;2.20;;;18.00;70.30;;;;;;5044445;28;20053;-71
2022/10/29 09:21:05;;;;;;;5.45;2.30;;;18.00;70.40;;;;;;5043352;28;20063;-70
2022/10/29 09:23:44;;;;;;;4.88;2.53;;;18.00;70.50;;;;;;5040935;28;20041;-70
2022/10/29 09:26:14;;;;;;;4.55;2.40;;;18.00;70.60;;;;;;5040983;28;20053;-70
2022/10/29 09:28:45;;;;;;;3.72;2.40;;;18.00;70.60;;;;;;5035539;28;20061;-71
2022/10/29 09:31:17;;;;;;;4.90;2.10;;;18.00;70.70;;;;;;5035140;28;20060;-71
2022/10/29 09:33:44;;;;;;;5.03;2.28;;;18.00;70.70;;;;;;5051018;28;20490;-71
2022/10/29 09:36:13;;;;;;;5.45;2.50;;;18.00;70.80;;;;;;5035398;28;20045;-70
2022/10/29 09:38:42;;;;;;;4.18;2.13;;;18.00;70.90;;;;;;5034272;28;20050;-70
2022/10/29 09:41:09;;;;;;;5.10;2.10;;;18.00;70.90;;;;;;5035362;28;20125;-71
2022/10/29 09:43:41;;;;;;;6.38;2.45;;;18.00;70.90;;;;;;5034746;28;20521;-70
2022/10/29 09:46:13;;;;;;;4.90;2.90;;;18.00;70.90;;;;;;5034723;28;20057;-70
2022/10/29 09:48:43;;;;;;;6.25;2.38;;;18.00;70.90;;;;;;5034812;28;20046;-70
2022/10/29 09:51:14;;;;;;;5.55;2.53;;;18.00;70.90;;;;;;5034232;28;20049;-71
2022/10/29 09:53:41;;;;;;;8.27;2.30;;;18.00;70.90;;;;;;5034371;28;20049;-71
2022/10/29 09:56:08;;;;;;;4.82;2.63;;;18.00;70.90;;;;;;5034667;28;20045;-71
2022/10/29 09:58:40;;;;;;;4.75;2.15;;;17.90;70.90;;;;;;5033621;28;20428;-71
2022/10/29 10:01:07;;;;;;;4.10;2.30;;;17.90;71.00;;;;;;5033021;28;20061;-71
2022/10/29 10:03:36;;;;;;;4.97;2.00;;;17.90;71.00;;;;;;5033971;28;20413;-71
2022/10/29 10:06:04;;;;;;;4.43;2.22;;;17.90;71.00;;;;;;5033981;28;20124;-71
2022/10/29 10:08:31;;;;;;;3.63;2.30;;;17.90;71.00;;;;;;5034014;28;20416;-71
2022/10/29 10:10:59;;;;;;;5.20;2.17;;;17.90;71.00;;;;;;5032772;28;20053;-70
2022/10/29 10:13:27;;;;;;;3.97;2.05;;;17.90;71.00;;;;;;5031205;28;20137;-70
2022/10/29 10:15:56;;;;;;;5.03;2.67;;;17.90;71.10;;;;;;5031123;28;20651;-70
2022/10/29 10:18:24;;;;;;;5.38;2.45;;;17.90;71.20;;;;;;5012799;28;20100;-70
2022/10/29 10:21:01;;;;;;;4.07;2.25;;;17.90;71.30;;;;;;5027856;28;20062;-71
2022/10/29 10:23:29;;;;;;;5.43;2.40;;;18.00;71.30;;;;;;5028380;28;20058;-70
2022/10/29 10:25:56;;;;;;;4.05;2.05;;;17.90;71.20;;;;;;5028840;28;20101;-70
2022/10/29 10:28:23;;;;;;;4.60;2.30;;;17.90;71.20;;;;;;5013949;28;20054;-71
2022/10/29 10:31:08;;;;;;;4.57;2.22;;;17.90;71.80;;;;;;5028789;28;20053;-70
2022/10/29 10:33:36;;;;;;;4.68;2.50;;;17.90;71.70;;;;;;5042036;28;20060;-70
2022/10/29 10:36:04;;;;;;;4.18;2.67;;;17.90;71.30;;;;;;5045851;28;20060;-71
2022/10/29 10:38:38;;;;;;;3.97;2.35;;;17.90;71.30;;;;;;5013836;28;20053;-70
2022/10/29 10:41:06;;;;;;;4.38;2.25;;;17.90;71.30;;;;;;5013906;28;20049;-71
2022/10/29 10:43:33;;;;;;;4.13;2.30;;;17.90;71.30;;;;;;5045802;28;20064;-71
2022/10/29 10:46:01;;;;;;;4.70;2.28;;;17.90;71.30;;;;;;5012567;28;20056;-71
2022/10/29 10:48:29;;;;;;;4.40;2.08;;;17.90;71.30;;;;;;5013938;28;20049;-71
2022/10/29 10:51:09;;;;;;;4.22;2.10;;;17.90;71.30;;;;;;5031795;28;20054;-70
2022/10/29 10:53:36;;;;;;;4.45;2.40;;;17.90;71.20;;;;;;5045572;28;20081;-70
2022/10/29 10:56:03;;;;;;;3.63;2.13;;;17.90;71.30;;;;;;5012761;28;20053;-69
2022/10/29 10:58:31;;;;;;;5.05;2.20;;;17.90;71.20;;;;;;5013694;28;20050;-69
2022/10/29 11:00:58;;;;;;;4.57;2.20;;;17.90;71.30;;;;;;5045883;28;20533;-71
2022/10/29 11:03:31;;;;;;;4.47;2.22;;;17.90;71.30;;;;;;5047189;28;20050;-71
2022/10/29 11:06:01;;;;;;;3.92;2.38;;;17.90;71.40;;;;;;5033290;28;20056;-71
2022/10/29 11:08:30;;;;;;;6.03;2.05;;;17.90;71.30;;;;;;5033605;28;20052;-71
2022/10/29 11:10:59;;;;;;;5.97;2.65;;;17.90;71.30;;;;;;5032880;28;20049;-70
2022/10/29 11:13:28;;;;;;;3.95;2.40;;;20.00;72.50;;;;;;5041696;28;20055;-70
2022/10/29 11:15:57;;;;;;;4.32;2.22;;;18.00;71.50;;;;;;5038332;28;20063;-70
2022/10/29 11:18:25;;;;;;;5.72;2.45;;;18.00;71.50;;;;;;5038688;28;20128;-70
2022/10/29 11:21:01;;;;;;;4.85;2.38;;;18.00;71.60;;;;;;5044185;28;20088;-69
2022/10/29 11:23:32;;;;;;;10.70;2.60;;;18.00;71.60;;;;;;5052820;28;20498;-72
2022/10/29 11:26:02;;;;;;;3.78;2.08;;;18.00;71.70;;;;;;5053834;28;20049;-72
2022/10/29 11:28:31;;;;;;;4.68;2.03;;;18.00;71.70;;;;;;5052290;28;20056;-72
2022/10/29 11:31:10;;;;;;;5.03;2.20;;;18.00;71.80;;;;;;5052049;28;20055;-73
2022/10/29 11:33:41;;;;;;;4.90;2.65;;;18.10;71.90;;;;;;5052781;28;20049;-71
2022/10/29 11:36:12;;;;;;;5.53;2.00;;;18.10;72.00;;;;;;5033353;28;20061;-70
2022/10/29 11:38:40;;;;;;;4.25;2.03;;;18.10;72.00;;;;;;5030988;28;20065;-71
2022/10/29 11:41:11;;;;;;;6.43;2.38;;;18.10;72.00;;;;;;5032471;28;20056;-70
2022/10/29 11:43:38;;;;;;;3.17;2.10;;;18.10;71.90;;;;;;5031694;28;20057;-70
2022/10/29 11:46:07;;;;;;;4.35;2.00;;;18.10;71.90;;;;;;5031474;28;20438;-71
2022/10/29 11:48:44;;;;;;;3.80;2.00;;;18.10;71.80;;;;;;5030760;28;20136;-70
2022/10/29 11:51:19;;;;;;;4.88;2.25;;;18.10;71.70;;;;;;5010959;28;20060;-71
2022/10/29 11:53:58;;;;;;;4.20;2.00;;;18.10;71.70;;;;;;5011575;28;20053;-70
2022/10/29 11:56:37;;;;;;;6.32;2.00;;;18.10;72.10;;;;;;5011819;28;20530;-71
2022/10/29 11:59:06;;;;;;;3.83;2.05;;;18.10;71.60;;;;;;5011691;28;20415;-70
2022/10/29 12:01:36;;;;;;;3.28;1.70;;;18.10;71.60;;;;;;5011215;28;20510;-70
2022/10/29 12:04:26;;;;;;;4.47;2.20;;;18.10;71.60;;;;;;5017582;28;20071;-72
2022/10/29 12:07:04;;;;;;;4.22;2.13;;;18.10;71.50;;;;;;5031458;28;20432;-72
2022/10/29 12:09:55;;;;;;;4.00;2.00;;;18.10;71.50;;;;;;5030952;28;20053;-70
2022/10/29 12:12:24;;;;;;;4.20;2.00;;;18.10;71.50;;;;;;5024325;28;20521;-70
2022/10/29 12:14:53;;;;;;;3.78;1.98;;;18.10;71.60;;;;;;5031819;28;20063;-70
2022/10/29 12:17:21;;;;;;;2.38;1.67;;;18.10;71.60;;;;;;5031190;28;20061;-70
2022/10/29 12:19:51;;;;;;;4.95;2.17;;;18.10;71.50;;;;;;5030967;28;20755;-71
2022/10/29 12:22:32;;;;;;;3.65;1.70;;;18.10;71.50;;;;;;5031062;28;20067;-70
2022/10/29 12:25:15;;;;;;;4.70;1.75;;;18.10;71.40;;;;;;5032045;28;20401;-71
2022/10/29 12:27:44;;;;;;;4.82;1.85;;;18.10;71.50;;;;;;5030857;28;20053;-71
2022/10/29 12:30:12;;;;;;;2.60;1.83;;;18.10;71.50;;;;;;5030561;28;20049;-71
2022/10/29 12:32:41;;;;;;;3.08;2.20;;;18.10;71.50;;;;;;5029469;28;20065;-71
2022/10/29 12:35:13;;;;;;;2.95;1.88;;;18.10;71.40;;;;;;5027174;28;20088;-71
2022/10/29 12:37:44;;;;;;;3.45;2.15;;;18.20;71.40;;;;;;5009175;28;20060;-71
2022/10/29 12:40:15;;;;;;;2.72;2.20;;;18.20;71.50;;;;;;5012009;28;20100;-72
2022/10/29 12:42:42;;;;;;;4.30;1.92;;;18.20;71.50;;;;;;5043406;28;20064;-71
2022/10/29 12:45:17;;;;;;;3.17;1.90;;;18.10;71.50;;;;;;5027502;28;20050;-71
2022/10/29 12:47:47;;;;;;;3.70;2.25;;;18.20;71.60;;;;;;5028168;28;20410;-71
2022/10/29 12:50:23;;;;;;;5.72;2.20;;;18.20;71.60;;;;;;5030541;28;20129;-71
2022/10/29 12:52:55;;;;;;;3.08;2.10;;;18.20;71.50;;;;;;5030099;28;20061;-71
2022/10/29 12:55:22;;;;;;;3.10;1.90;;;18.20;71.50;;;;;;5015292;28;20058;-71